createdAt,value
2018-03-26T00:00:46.941Z,20.55
2018-03-26T00:01:53.129Z,21.33
2018-03-26T00:02:59.340Z,22.40
2018-03-26T00:04:05.245Z,21.90
2018-03-26T00:05:11.670Z,21.60
2018-03-26T00:06:17.885Z,21.73
2018-03-26T00:07:24.083Z,24.45
2018-03-26T00:08:30.422Z,21.60
2018-03-26T00:09:36.799Z,21.40
2018-03-26T00:10:43.035Z,22.17
2018-03-26T00:11:50.783Z,22.15
2018-03-26T00:12:56.987Z,22.35
2018-03-26T00:14:03.585Z,22.25
2018-03-26T00:15:09.788Z,23.90
2018-03-26T00:16:16.045Z,23.15
2018-03-26T00:17:22.286Z,23.33
2018-03-26T00:18:28.499Z,24.55
2018-03-26T00:19:34.689Z,24.58
2018-03-26T00:20:42.062Z,21.83
2018-03-26T00:21:48.293Z,21.33
2018-03-26T00:22:54.742Z,23.50
2018-03-26T00:24:05.746Z,24.92
2018-03-26T00:25:11.986Z,23.67
2018-03-26T00:26:18.341Z,21.52
2018-03-26T00:27:24.808Z,23.58
2018-03-26T00:28:31.032Z,23.02
2018-03-26T00:29:36.946Z,24.05
2018-03-26T00:30:43.063Z,23.90
2018-03-26T00:31:49.275Z,24.35
2018-03-26T00:32:55.252Z,23.70
2018-03-26T00:34:01.476Z,23.38
2018-03-26T00:35:07.992Z,22.80
2018-03-26T00:36:14.298Z,22.85
2018-03-26T00:37:20.693Z,24.95
2018-03-26T00:38:26.878Z,24.95
2018-03-26T00:39:36.293Z,24.35
2018-03-26T00:40:42.764Z,23.67
2018-03-26T00:41:48.994Z,23.10
2018-03-26T00:42:55.242Z,23.52
2018-03-26T00:44:04.480Z,23.25
2018-03-26T00:45:10.791Z,23.83
2018-03-26T00:46:17.079Z,22.62
2018-03-26T00:47:23.237Z,23.25
2018-03-26T00:48:29.443Z,23.98
2018-03-26T00:49:35.729Z,24.25
2018-03-26T00:50:42.267Z,24.15
2018-03-26T00:51:54.444Z,24.90
2018-03-26T00:53:01.493Z,23.83
2018-03-26T00:54:07.641Z,24.85
2018-03-26T00:55:14.742Z,25.50
2018-03-26T00:56:21.782Z,22.92
2018-03-26T00:57:28.209Z,26.00
2018-03-26T00:58:34.685Z,26.08
2018-03-26T00:59:40.862Z,24.98
2018-03-26T01:00:47.099Z,24.05
2018-03-26T01:01:52.984Z,25.80
2018-03-26T01:02:59.007Z,26.58
2018-03-26T01:04:04.927Z,24.60
2018-03-26T01:05:14.788Z,24.02
2018-03-26T01:06:22.924Z,24.33
2018-03-26T01:07:29.278Z,25.75
2018-03-26T01:08:35.447Z,24.12
2018-03-26T01:09:41.636Z,24.30
2018-03-26T01:10:47.884Z,26.00
2018-03-26T01:11:54.157Z,24.05
2018-03-26T01:13:00.585Z,26.15
2018-03-26T01:14:06.726Z,25.80
2018-03-26T01:15:12.577Z,26.80
2018-03-26T01:16:18.809Z,27.60
2018-03-26T01:17:25.551Z,26.45
2018-03-26T01:18:31.945Z,25.10
2018-03-26T01:19:38.404Z,25.80
2018-03-26T01:20:44.561Z,25.50
2018-03-26T01:21:50.812Z,25.40
2018-03-26T01:22:57.034Z,25.80
2018-03-26T01:24:03.268Z,25.70
2018-03-26T01:25:09.454Z,23.80
2018-03-26T01:26:15.738Z,23.92
2018-03-26T01:27:22.026Z,24.02
2018-03-26T01:28:28.228Z,24.35
2018-03-26T01:29:34.692Z,24.37
2018-03-26T01:30:40.909Z,25.37
2018-03-26T01:31:47.144Z,24.00
2018-03-26T01:32:53.314Z,24.85
2018-03-26T01:33:59.510Z,25.02
2018-03-26T01:35:05.592Z,24.60
2018-03-26T01:36:12.012Z,24.55
2018-03-26T01:37:18.243Z,25.88
2018-03-26T01:38:24.490Z,25.45
2018-03-26T01:39:30.717Z,24.60
2018-03-26T01:40:37.248Z,25.67
2018-03-26T01:41:43.556Z,25.73
2018-03-26T01:42:49.883Z,23.65
2018-03-26T01:43:55.784Z,25.37
2018-03-26T01:45:02.005Z,25.37
2018-03-26T01:46:08.258Z,24.83
2018-03-26T01:47:14.521Z,24.85
2018-03-26T01:48:21.139Z,25.42
2018-03-26T01:49:27.384Z,25.88
2018-03-26T01:50:33.400Z,24.80
2018-03-26T01:51:39.917Z,25.48
2018-03-26T01:52:50.808Z,24.85
2018-03-26T01:53:57.052Z,26.58
2018-03-26T01:55:03.288Z,25.23
2018-03-26T01:56:09.543Z,25.75
2018-03-26T01:57:15.697Z,25.60
2018-03-26T01:58:21.876Z,25.17
2018-03-26T01:59:28.803Z,25.75
2018-03-26T02:00:35.882Z,24.42
2018-03-26T02:01:41.723Z,25.65
2018-03-26T02:02:48.045Z,25.10
2018-03-26T02:03:54.228Z,27.25
2018-03-26T02:05:00.386Z,25.05
2018-03-26T02:06:06.636Z,24.65
2018-03-26T02:07:12.893Z,26.05
2018-03-26T02:08:18.802Z,24.75
2018-03-26T02:09:30.213Z,25.05
2018-03-26T02:10:36.181Z,25.15
2018-03-26T02:11:46.338Z,26.20
2018-03-26T02:12:53.107Z,26.67
2018-03-26T02:13:59.388Z,24.65
2018-03-26T02:15:05.568Z,24.20
2018-03-26T02:16:11.805Z,25.08
2018-03-26T02:17:17.996Z,25.25
2018-03-26T02:18:24.247Z,24.45
2018-03-26T02:19:30.521Z,25.62
2018-03-26T02:20:36.803Z,26.00
2018-03-26T02:21:42.982Z,24.02
2018-03-26T02:22:49.183Z,24.63
2018-03-26T02:23:55.393Z,25.05
2018-03-26T02:25:01.592Z,24.00
2018-03-26T02:26:09.121Z,23.95
2018-03-26T02:27:15.396Z,23.80
2018-03-26T02:28:21.625Z,24.45
2018-03-26T02:29:27.815Z,26.60
2018-03-26T02:30:34.088Z,24.20
2018-03-26T02:31:40.342Z,24.33
2018-03-26T02:32:46.564Z,26.02
2018-03-26T02:33:52.773Z,25.42
2018-03-26T02:34:58.939Z,24.73
2018-03-26T02:36:04.804Z,25.33
2018-03-26T02:37:10.379Z,24.80
2018-03-26T02:38:19.421Z,25.25
2018-03-26T02:39:25.645Z,26.17
2018-03-26T02:40:31.998Z,25.00
2018-03-26T02:41:39.981Z,24.73
2018-03-26T02:42:49.833Z,24.33
2018-03-26T02:43:56.034Z,26.15
2018-03-26T02:45:02.101Z,25.62
2018-03-26T02:46:08.320Z,26.90
2018-03-26T02:47:14.538Z,23.35
2018-03-26T02:48:20.733Z,22.80
2018-03-26T02:49:26.946Z,21.98
2018-03-26T02:50:36.016Z,25.23
2018-03-26T02:51:42.269Z,26.52
2018-03-26T02:52:48.471Z,26.35
2018-03-26T02:53:54.733Z,26.30
2018-03-26T02:55:00.948Z,23.08
2018-03-26T02:56:07.094Z,24.60
2018-03-26T02:57:13.213Z,24.25
2018-03-26T02:58:19.441Z,24.63
2018-03-26T02:59:25.740Z,24.85
2018-03-26T03:00:32.131Z,23.12
2018-03-26T03:01:46.623Z,23.50
2018-03-26T03:04:10.095Z,25.50
2018-03-26T03:05:16.469Z,24.37
2018-03-26T03:06:22.721Z,25.25
2018-03-26T03:07:28.924Z,24.90
2018-03-26T03:08:35.149Z,26.17
2018-03-26T03:09:43.330Z,24.58
2018-03-26T03:10:49.540Z,25.30
2018-03-26T03:11:55.396Z,24.80
2018-03-26T03:13:01.606Z,25.33
2018-03-26T03:14:15.329Z,25.40
2018-03-26T03:15:21.541Z,24.70
2018-03-26T03:16:30.816Z,24.75
2018-03-26T03:17:36.708Z,25.20
2018-03-26T03:18:42.671Z,23.95
2018-03-26T03:19:49.035Z,23.90
2018-03-26T03:20:55.396Z,25.40
2018-03-26T03:22:01.635Z,24.85
2018-03-26T03:23:13.150Z,25.25
2018-03-26T03:24:19.292Z,26.60
2018-03-26T03:25:25.478Z,25.95
2018-03-26T03:26:31.657Z,24.25
2018-03-26T03:27:38.685Z,24.08
2018-03-26T03:28:44.980Z,23.98
2018-03-26T03:29:51.327Z,24.60
2018-03-26T03:30:57.599Z,24.75
2018-03-26T03:32:03.580Z,26.48
2018-03-26T03:33:10.372Z,24.77
2018-03-26T03:34:16.648Z,24.92
2018-03-26T03:35:28.296Z,25.27
2018-03-26T03:36:36.415Z,25.85
2018-03-26T03:37:42.779Z,26.37
2018-03-26T03:38:48.973Z,24.45
2018-03-26T03:39:54.924Z,26.87
2018-03-26T03:41:01.258Z,24.83
2018-03-26T03:42:07.424Z,24.75
2018-03-26T03:43:13.628Z,24.92
2018-03-26T03:44:19.879Z,25.50
2018-03-26T03:45:29.205Z,25.12
2018-03-26T03:46:37.406Z,24.23
2018-03-26T03:47:43.666Z,24.73
2018-03-26T03:48:49.891Z,26.60
2018-03-26T03:49:56.093Z,24.52
2018-03-26T03:51:02.284Z,25.70
2018-03-26T03:52:08.523Z,25.30
2018-03-26T03:53:14.752Z,24.87
2018-03-26T03:54:20.754Z,24.90
2018-03-26T03:55:28.932Z,24.42
2018-03-26T03:56:35.168Z,24.23
2018-03-26T03:57:41.304Z,23.85
2018-03-26T03:58:52.124Z,24.85
2018-03-26T03:59:58.342Z,26.37
2018-03-26T04:01:04.657Z,25.30
2018-03-26T04:02:11.205Z,24.90
2018-03-26T04:03:18.040Z,24.87
2018-03-26T04:04:24.290Z,25.67
2018-03-26T04:05:30.579Z,26.87
2018-03-26T04:06:36.794Z,25.80
2018-03-26T04:07:43.117Z,25.83
2018-03-26T04:08:49.353Z,25.58
2018-03-26T04:10:00.738Z,23.55
2018-03-26T04:11:07.085Z,25.90
2018-03-26T04:12:19.042Z,25.25
2018-03-26T04:13:29.210Z,26.12
2018-03-26T04:14:35.461Z,25.98
2018-03-26T04:15:42.347Z,24.98
2018-03-26T04:16:55.220Z,25.25
2018-03-26T04:18:01.441Z,25.37
2018-03-26T04:19:07.730Z,24.75
2018-03-26T04:20:13.797Z,25.33
2018-03-26T04:21:20.153Z,25.70
2018-03-26T04:22:26.074Z,26.90
2018-03-26T04:23:32.358Z,25.20
2018-03-26T04:24:38.602Z,26.85
2018-03-26T04:25:44.862Z,25.73
2018-03-26T04:26:54.248Z,25.05
2018-03-26T04:28:00.478Z,26.80
2018-03-26T04:29:06.792Z,24.08
2018-03-26T04:30:13.017Z,25.83
2018-03-26T04:31:19.459Z,26.05
2018-03-26T04:32:31.679Z,25.17
2018-03-26T04:33:37.983Z,23.08
2018-03-26T04:34:44.171Z,26.52
2018-03-26T04:35:50.427Z,25.20
2018-03-26T04:36:56.680Z,25.48
2018-03-26T04:38:02.861Z,24.80
2018-03-26T04:39:08.395Z,26.05
2018-03-26T04:40:19.020Z,25.25
2018-03-26T04:41:25.267Z,25.90
2018-03-26T04:42:31.552Z,25.10
2018-03-26T04:43:37.720Z,23.62
2018-03-26T04:44:43.931Z,24.83
2018-03-26T04:45:50.218Z,25.75
2018-03-26T04:46:56.523Z,25.80
2018-03-26T04:48:02.782Z,26.70
2018-03-26T04:49:11.894Z,24.58
2018-03-26T04:50:19.230Z,25.52
2018-03-26T04:51:25.494Z,24.55
2018-03-26T04:52:36.902Z,23.52
2018-03-26T04:53:45.135Z,25.77
2018-03-26T04:54:56.313Z,24.58
2018-03-26T04:56:03.472Z,25.58
2018-03-26T04:57:09.861Z,24.83
2018-03-26T04:58:16.096Z,24.55
2018-03-26T04:59:22.385Z,26.92
2018-03-26T05:00:31.682Z,24.30
2018-03-26T05:01:38.019Z,25.62
2018-03-26T05:02:44.186Z,25.52
2018-03-26T05:03:50.408Z,25.92
2018-03-26T05:04:57.319Z,25.60
2018-03-26T05:06:04.114Z,24.77
2018-03-26T05:07:13.226Z,24.15
2018-03-26T05:08:19.393Z,26.25
2018-03-26T05:09:30.166Z,25.00
2018-03-26T05:10:38.004Z,26.08
2018-03-26T05:11:44.212Z,27.05
2018-03-26T05:12:51.277Z,25.70
2018-03-26T05:13:57.495Z,25.52
2018-03-26T05:15:03.718Z,25.23
2018-03-26T05:16:09.938Z,26.20
2018-03-26T05:17:16.044Z,26.98
2018-03-26T05:18:22.348Z,23.95
2018-03-26T05:19:28.519Z,26.85
2018-03-26T05:20:34.911Z,25.45
2018-03-26T05:21:41.192Z,25.92
2018-03-26T05:22:51.920Z,25.12
2018-03-26T05:23:59.150Z,25.98
2018-03-26T05:25:04.635Z,25.40
2018-03-26T05:26:10.866Z,25.58
2018-03-26T05:27:17.067Z,25.17
2018-03-26T05:28:26.146Z,26.90
2018-03-26T05:29:32.394Z,26.35
2018-03-26T05:30:38.594Z,25.30
2018-03-26T05:31:44.968Z,25.88
2018-03-26T05:32:51.274Z,26.23
2018-03-26T05:33:57.462Z,26.87
2018-03-26T05:35:08.413Z,26.75
2018-03-26T05:36:14.547Z,26.65
2018-03-26T05:37:24.197Z,25.70
2018-03-26T05:38:30.681Z,26.42
2018-03-26T05:39:36.884Z,26.48
2018-03-26T05:40:45.973Z,26.10
2018-03-26T05:41:51.958Z,27.08
2018-03-26T05:42:58.209Z,27.08
2018-03-26T05:44:04.385Z,26.77
2018-03-26T05:45:10.331Z,26.73
2018-03-26T05:46:16.607Z,25.45
2018-03-26T05:47:22.829Z,26.87
2018-03-26T05:48:31.116Z,25.70
2018-03-26T05:49:37.104Z,26.67
2018-03-26T05:50:48.509Z,27.87
2018-03-26T05:51:55.684Z,25.80
2018-03-26T05:53:02.075Z,26.85
2018-03-26T05:54:07.924Z,25.95
2018-03-26T05:55:14.108Z,26.37
2018-03-26T05:56:23.087Z,24.85
2018-03-26T05:57:29.301Z,25.25
2018-03-26T05:58:35.493Z,26.85
2018-03-26T05:59:41.745Z,26.05
2018-03-26T06:00:47.921Z,26.80
2018-03-26T06:01:54.103Z,25.30
2018-03-26T06:03:04.854Z,25.30
2018-03-26T06:04:11.031Z,27.08
2018-03-26T06:05:18.469Z,26.37
2018-03-26T06:06:24.745Z,25.80
2018-03-26T06:07:31.053Z,25.65
2018-03-26T06:08:37.745Z,26.27
2018-03-26T06:09:43.970Z,26.27
2018-03-26T06:10:50.185Z,26.52
2018-03-26T06:11:57.396Z,25.60
2018-03-26T06:13:15.302Z,25.60
2018-03-26T06:14:24.316Z,25.85
2018-03-26T06:15:30.727Z,26.37
2018-03-26T06:16:45.127Z,26.65
2018-03-26T06:17:50.885Z,26.92
2018-03-26T06:18:57.058Z,25.12
2018-03-26T06:20:04.572Z,28.33
2018-03-26T06:21:10.671Z,26.65
2018-03-26T06:22:16.777Z,25.73
2018-03-26T06:23:22.830Z,26.33
2018-03-26T06:24:33.964Z,26.55
2018-03-26T06:25:39.980Z,25.77
2018-03-26T06:26:46.024Z,24.98
2018-03-26T06:27:52.128Z,25.92
2018-03-26T06:28:58.140Z,25.00
2018-03-26T06:30:06.765Z,25.70
2018-03-26T06:31:12.783Z,24.35
2018-03-26T06:32:21.404Z,25.73
2018-03-26T06:33:29.055Z,25.20
2018-03-26T06:34:37.612Z,27.25
2018-03-26T06:35:43.661Z,25.20
2018-03-26T06:38:39.387Z,24.23
2018-03-26T06:39:45.560Z,27.17
2018-03-26T06:40:51.516Z,25.48
2018-03-26T06:41:57.685Z,25.17
2018-03-26T06:43:03.888Z,24.70
2018-03-26T06:44:11.741Z,24.87
2018-03-26T06:45:18.129Z,26.02
2018-03-26T06:46:27.218Z,25.48
2018-03-26T06:47:33.691Z,26.17
2018-03-26T06:48:40.980Z,23.27
2018-03-26T06:49:47.193Z,26.33
2018-03-26T06:50:53.617Z,23.80
2018-03-26T06:51:59.802Z,24.05
2018-03-26T06:53:06.089Z,23.92
2018-03-26T06:54:20.664Z,24.12
2018-03-26T06:55:35.110Z,24.83
2018-03-26T06:56:41.319Z,26.60
2018-03-26T06:57:47.518Z,26.10
2018-03-26T06:58:53.743Z,25.00
2018-03-26T06:59:59.980Z,24.85
2018-03-26T07:01:11.754Z,24.87
2018-03-26T07:02:17.982Z,24.48
2018-03-26T07:03:24.446Z,23.30
2018-03-26T07:04:30.773Z,23.55
2018-03-26T07:05:36.996Z,23.12
2018-03-26T07:06:43.229Z,24.60
2018-03-26T07:07:49.485Z,24.63
2018-03-26T07:08:55.707Z,22.92
2018-03-26T07:10:01.880Z,25.73
2018-03-26T07:11:08.101Z,23.87
2018-03-26T07:12:14.322Z,25.20
2018-03-26T07:13:21.857Z,25.50
2018-03-26T07:14:28.859Z,24.33
2018-03-26T07:15:39.979Z,25.17
2018-03-26T07:16:46.302Z,23.65
2018-03-26T07:17:52.500Z,25.73
2018-03-26T07:18:58.736Z,24.50
2018-03-26T07:20:04.731Z,26.00
2018-03-26T07:21:10.945Z,24.87
2018-03-26T07:22:17.159Z,26.10
2018-03-26T07:23:23.855Z,24.30
2018-03-26T07:24:30.029Z,26.75
2018-03-26T07:25:44.730Z,25.98
2018-03-26T07:26:50.931Z,23.77
2018-03-26T07:27:57.149Z,22.98
2018-03-26T07:29:09.252Z,24.60
2018-03-26T07:30:17.387Z,25.98
2018-03-26T07:31:23.514Z,25.95
2018-03-26T07:32:29.781Z,26.17
2018-03-26T07:33:35.940Z,25.65
2018-03-26T07:34:42.234Z,25.25
2018-03-26T07:35:48.392Z,25.62
2018-03-26T07:36:54.275Z,24.45
2018-03-26T07:38:00.872Z,26.50
2018-03-26T07:39:07.198Z,24.80
2018-03-26T07:40:13.404Z,26.33
2018-03-26T07:41:19.574Z,25.60
2018-03-26T07:42:25.834Z,26.92
2018-03-26T07:43:37.834Z,24.17
2018-03-26T07:44:45.204Z,25.92
2018-03-26T07:45:51.404Z,24.42
2018-03-26T07:46:57.631Z,25.85
2018-03-26T07:48:03.917Z,26.15
2018-03-26T07:49:15.097Z,25.80
2018-03-26T07:50:21.294Z,25.67
2018-03-26T07:51:27.471Z,25.83
2018-03-26T07:52:33.949Z,24.00
2018-03-26T07:53:40.151Z,25.95
2018-03-26T07:54:46.390Z,27.35
2018-03-26T07:55:52.558Z,26.00
2018-03-26T07:56:59.040Z,26.08
2018-03-26T07:58:09.249Z,26.02
2018-03-26T07:59:17.786Z,23.38
2018-03-26T08:00:24.073Z,25.42
2018-03-26T08:01:30.292Z,25.12
2018-03-26T08:02:36.505Z,25.25
2018-03-26T08:03:42.916Z,26.77
2018-03-26T08:04:49.125Z,27.13
2018-03-26T08:05:55.303Z,26.83
2018-03-26T08:07:01.516Z,26.37
2018-03-26T08:08:07.599Z,27.37
2018-03-26T08:09:14.797Z,26.42
2018-03-26T08:10:21.007Z,26.70
2018-03-26T08:11:27.027Z,25.12
2018-03-26T08:12:33.431Z,26.67
2018-03-26T08:13:40.642Z,26.85
2018-03-26T08:14:46.837Z,27.98
2018-03-26T08:15:53.042Z,26.92
2018-03-26T08:16:59.327Z,26.87
2018-03-26T08:18:05.222Z,26.98
2018-03-26T08:19:11.462Z,26.55
2018-03-26T08:20:18.009Z,27.60
2018-03-26T08:21:24.167Z,27.20
2018-03-26T08:22:30.386Z,27.73
2018-03-26T08:23:36.570Z,26.52
2018-03-26T08:24:47.866Z,28.08
2018-03-26T08:25:54.093Z,27.25
2018-03-26T08:27:00.368Z,29.12
2018-03-26T08:28:06.905Z,27.80
2018-03-26T08:29:13.191Z,28.00
2018-03-26T08:30:24.076Z,26.17
2018-03-26T08:31:30.300Z,28.35
2018-03-26T08:32:36.538Z,30.15
2018-03-26T08:33:42.703Z,28.48
2018-03-26T08:34:48.933Z,28.75
2018-03-26T08:35:55.085Z,29.90
2018-03-26T08:37:01.287Z,27.92
2018-03-26T08:38:07.492Z,28.27
2018-03-26T08:39:13.640Z,28.60
2018-03-26T08:40:25.930Z,29.40
2018-03-26T08:41:33.851Z,28.27
2018-03-26T08:42:40.004Z,29.60
2018-03-26T08:43:46.365Z,29.65
2018-03-26T08:44:52.559Z,28.17
2018-03-26T08:45:58.911Z,31.35
2018-03-26T08:47:06.105Z,31.12
2018-03-26T08:48:15.774Z,30.67
2018-03-26T08:49:21.974Z,29.73
2018-03-26T08:50:28.201Z,30.70
2018-03-26T08:51:39.566Z,30.50
2018-03-26T08:52:45.777Z,30.80
2018-03-26T08:53:54.821Z,29.73
2018-03-26T08:55:03.064Z,29.85
2018-03-26T08:56:09.263Z,29.77
2018-03-26T08:57:15.538Z,31.33
2018-03-26T08:58:21.758Z,29.58
2018-03-26T08:59:28.029Z,29.90
2018-03-26T09:00:36.965Z,31.37
2018-03-26T09:01:43.200Z,28.25
2018-03-26T09:02:56.564Z,31.45
2018-03-26T09:04:02.726Z,29.95
2018-03-26T09:05:14.936Z,31.17
2018-03-26T09:06:24.030Z,27.90
2018-03-26T09:07:33.163Z,30.08
2018-03-26T09:08:42.477Z,32.45
2018-03-26T09:09:48.653Z,30.58
2018-03-26T09:10:54.838Z,31.40
2018-03-26T09:12:00.810Z,31.73
2018-03-26T09:13:07.292Z,31.62
2018-03-26T09:14:18.544Z,30.83
2018-03-26T09:15:29.570Z,32.28
2018-03-26T09:16:36.047Z,30.92
2018-03-26T09:17:42.325Z,28.70
2018-03-26T09:18:51.706Z,32.13
2018-03-26T09:19:57.893Z,29.67
2018-03-26T09:21:04.658Z,32.15
2018-03-26T09:22:10.683Z,31.17
2018-03-26T09:23:17.893Z,30.20
2018-03-26T09:24:24.066Z,31.08
2018-03-26T09:25:30.409Z,29.17
2018-03-26T09:26:36.709Z,31.65
2018-03-26T09:27:42.932Z,31.12
2018-03-26T09:28:49.162Z,31.27
2018-03-26T09:29:55.399Z,29.80
2018-03-26T09:31:06.609Z,30.60
2018-03-26T09:32:12.857Z,29.60
2018-03-26T09:33:19.058Z,31.80
2018-03-26T09:34:30.938Z,28.83
2018-03-26T09:35:37.141Z,30.98
2018-03-26T09:36:43.319Z,30.27
2018-03-26T09:37:49.527Z,32.78
2018-03-26T09:38:55.697Z,31.23
2018-03-26T09:40:01.924Z,31.85
2018-03-26T09:41:07.759Z,32.22
2018-03-26T09:42:13.887Z,33.30
2018-03-26T09:43:26.133Z,31.10
2018-03-26T09:44:32.356Z,32.60
2018-03-26T09:45:38.589Z,33.22
2018-03-26T09:46:44.784Z,32.20
2018-03-26T09:47:51.977Z,32.70
2018-03-26T09:48:58.884Z,32.35
2018-03-26T09:50:04.688Z,33.25
2018-03-26T09:51:10.904Z,31.35
2018-03-26T09:52:22.350Z,33.13
2018-03-26T09:53:28.595Z,32.60
2018-03-26T09:54:34.806Z,33.38
2018-03-26T09:55:41.012Z,34.25
2018-03-26T09:56:47.238Z,32.65
2018-03-26T09:57:53.509Z,35.05
2018-03-26T09:58:59.747Z,32.33
2018-03-26T10:00:05.872Z,32.90
2018-03-26T10:01:18.031Z,34.78
2018-03-26T10:02:24.277Z,34.40
2018-03-26T10:03:30.499Z,32.90
2018-03-26T10:04:42.107Z,33.92
2018-03-26T10:05:50.394Z,35.00
2018-03-26T10:06:56.606Z,34.10
2018-03-26T10:08:03.208Z,33.65
2018-03-26T10:09:09.488Z,34.70
2018-03-26T10:10:15.735Z,35.03
2018-03-26T10:11:21.918Z,33.78
2018-03-26T10:12:28.142Z,32.33
2018-03-26T10:13:36.378Z,33.85
2018-03-26T10:14:42.532Z,34.42
2018-03-26T10:15:48.695Z,33.47
2018-03-26T10:16:54.851Z,32.72
2018-03-26T10:18:01.361Z,33.45
2018-03-26T10:19:07.576Z,33.20
2018-03-26T10:20:13.815Z,34.92
2018-03-26T10:21:22.939Z,32.92
2018-03-26T10:22:28.874Z,32.78
2018-03-26T10:23:35.367Z,33.30
2018-03-26T10:24:42.741Z,32.25
2018-03-26T10:25:53.591Z,33.13
2018-03-26T10:26:59.837Z,32.70
2018-03-26T10:28:05.693Z,32.35
2018-03-26T10:29:17.561Z,29.27
2018-03-26T10:30:27.764Z,32.65
2018-03-26T10:31:34.000Z,31.77
2018-03-26T10:32:40.241Z,32.13
2018-03-26T10:33:46.661Z,32.00
2018-03-26T10:34:52.801Z,32.85
2018-03-26T10:35:58.946Z,31.10
2018-03-26T10:37:04.803Z,32.90
2018-03-26T10:38:11.031Z,31.08
2018-03-26T10:39:17.242Z,33.05
2018-03-26T10:40:23.459Z,30.35
2018-03-26T10:41:36.277Z,31.87
2018-03-26T10:42:42.559Z,32.25
2018-03-26T10:43:50.712Z,30.88
2018-03-26T10:44:57.035Z,28.85
2018-03-26T10:46:02.948Z,31.58
2018-03-26T10:47:15.166Z,31.58
2018-03-26T10:48:21.481Z,27.55
2018-03-26T10:49:27.773Z,29.65
2018-03-26T10:50:34.133Z,29.35
2018-03-26T10:51:40.904Z,29.75
2018-03-26T10:52:47.226Z,32.00
2018-03-26T10:53:58.851Z,31.17
2018-03-26T10:55:04.951Z,29.30
2018-03-26T10:56:12.325Z,30.45
2018-03-26T10:57:18.839Z,30.00
2018-03-26T10:58:25.058Z,30.10
2018-03-26T10:59:32.439Z,30.08
2018-03-26T11:00:47.907Z,30.55
2018-03-26T11:01:54.195Z,32.65
2018-03-26T11:03:00.405Z,32.72
2018-03-26T11:04:06.614Z,31.20
2018-03-26T11:05:12.410Z,32.42
2018-03-26T11:06:18.700Z,32.20
2018-03-26T11:07:25.302Z,30.92
2018-03-26T11:08:31.520Z,31.85
2018-03-26T11:09:37.496Z,30.62
2018-03-26T11:10:46.516Z,28.00
2018-03-26T11:11:53.172Z,28.60
2018-03-26T11:12:59.437Z,28.50
2018-03-26T11:14:05.670Z,27.95
2018-03-26T11:15:11.853Z,25.83
2018-03-26T11:16:18.098Z,26.05
2018-03-26T11:17:24.455Z,27.52
2018-03-26T11:18:33.775Z,26.45
2018-03-26T11:19:40.035Z,26.77
2018-03-26T11:20:45.955Z,27.55
2018-03-26T11:21:52.202Z,27.15
2018-03-26T11:22:58.180Z,26.60
2018-03-26T11:24:04.252Z,26.65
2018-03-26T11:25:10.485Z,25.77
2018-03-26T11:26:16.787Z,23.80
2018-03-26T11:27:23.044Z,27.20
2018-03-26T11:28:29.343Z,25.75
2018-03-26T11:29:36.668Z,26.33
2018-03-26T11:30:42.951Z,25.65
2018-03-26T11:31:49.272Z,25.12
2018-03-26T11:32:55.494Z,25.45
2018-03-26T11:34:04.793Z,23.60
2018-03-26T11:35:11.060Z,23.98
2018-03-26T11:36:17.306Z,22.55
2018-03-26T11:37:28.547Z,24.27
2018-03-26T11:38:36.799Z,27.55
2018-03-26T11:39:43.060Z,25.70
2018-03-26T11:40:49.282Z,25.30
2018-03-26T11:41:55.569Z,26.40
2018-03-26T11:43:01.794Z,24.48
2018-03-26T11:44:08.020Z,26.98
2018-03-26T11:45:14.287Z,26.70
2018-03-26T11:46:20.787Z,25.25
2018-03-26T11:47:27.005Z,24.05
2018-03-26T11:48:40.648Z,25.58
2018-03-26T11:49:47.066Z,25.62
2018-03-26T11:50:53.276Z,24.23
2018-03-26T11:51:59.533Z,27.20
2018-03-26T11:53:05.418Z,23.75
2018-03-26T11:54:12.649Z,24.90
2018-03-26T11:55:18.981Z,24.85
2018-03-26T11:56:25.713Z,24.98
2018-03-26T11:57:32.002Z,24.55
2018-03-26T11:58:38.265Z,26.08
2018-03-26T11:59:44.511Z,26.20
2018-03-26T12:00:50.883Z,24.45
2018-03-26T12:01:56.759Z,24.73
2018-03-26T12:03:02.986Z,23.35
2018-03-26T12:04:09.270Z,23.40
2018-03-26T12:05:15.509Z,23.30
2018-03-26T12:06:22.194Z,22.55
2018-03-26T12:07:28.465Z,23.75
2018-03-26T12:08:34.710Z,23.00
2018-03-26T12:09:41.827Z,24.00
2018-03-26T12:10:48.072Z,23.77
2018-03-26T12:11:54.313Z,22.65
2018-03-26T12:13:00.548Z,23.17
2018-03-26T12:14:06.510Z,22.98
2018-03-26T12:15:12.776Z,23.40
2018-03-26T12:16:19.444Z,21.55
2018-03-26T12:17:28.421Z,24.55
2018-03-26T12:18:40.258Z,22.92
2018-03-26T12:20:01.002Z,22.00
2018-03-26T12:21:06.344Z,21.50
2018-03-26T12:22:11.997Z,23.05
2018-03-26T12:23:29.235Z,22.20
2018-03-26T12:24:46.339Z,22.98
2018-03-26T12:25:52.268Z,22.65
2018-03-26T12:26:58.708Z,23.60
2018-03-26T12:28:16.084Z,23.15
2018-03-26T12:29:36.048Z,21.25
2018-03-26T12:30:42.022Z,23.17
2018-03-26T12:31:55.214Z,22.87
2018-03-26T12:33:05.816Z,22.02
2018-03-26T12:34:23.801Z,23.80
2018-03-26T12:35:40.848Z,23.58
2018-03-26T12:36:46.794Z,23.12
2018-03-26T12:37:53.302Z,21.92
2018-03-26T12:38:59.597Z,20.65
2018-03-26T12:40:04.903Z,22.15
2018-03-26T12:41:10.897Z,22.60
2018-03-26T12:42:17.139Z,22.80
2018-03-26T12:43:23.372Z,23.15
2018-03-26T12:44:40.402Z,22.30
2018-03-26T12:47:28.978Z,23.12
2018-03-26T12:48:35.230Z,22.00
2018-03-26T12:49:41.501Z,22.62
2018-03-26T12:50:58.771Z,24.42
2018-03-26T12:52:21.103Z,23.75
2018-03-26T12:53:32.249Z,23.10
2018-03-26T12:54:43.743Z,24.67
2018-03-26T12:55:50.688Z,23.73
2018-03-26T12:58:52.038Z,23.67
2018-03-26T13:00:02.598Z,22.98
2018-03-26T13:01:22.800Z,25.12
2018-03-26T13:02:30.745Z,23.73
2018-03-26T13:03:37.540Z,23.30
2018-03-26T13:04:43.908Z,23.38
2018-03-26T13:05:50.856Z,22.30
2018-03-26T13:06:57.162Z,21.17
2018-03-26T13:08:03.750Z,19.50
2018-03-26T13:09:09.747Z,20.85
2018-03-26T13:10:24.707Z,21.35
2018-03-26T13:11:30.939Z,20.12
2018-03-26T13:12:37.419Z,19.80
2018-03-26T13:13:44.055Z,21.27
2018-03-26T13:14:51.164Z,20.70
2018-03-26T13:15:58.159Z,19.95
2018-03-26T13:17:04.373Z,20.73
2018-03-26T13:18:10.762Z,20.00
2018-03-26T13:19:17.087Z,19.37
2018-03-26T13:20:23.427Z,20.73
2018-03-26T13:21:29.692Z,19.00
2018-03-26T13:22:36.114Z,19.92
2018-03-26T13:23:42.123Z,20.98
2018-03-26T13:24:48.349Z,21.23
2018-03-26T13:26:00.715Z,21.20
2018-03-26T13:27:07.062Z,20.83
2018-03-26T13:28:16.635Z,21.83
2018-03-26T13:29:22.990Z,21.20
2018-03-26T13:30:29.291Z,19.37
2018-03-26T13:31:35.635Z,20.90
2018-03-26T13:32:42.055Z,20.17
2018-03-26T13:33:48.413Z,19.73
2018-03-26T13:34:54.871Z,19.55
2018-03-26T13:36:01.152Z,19.80
2018-03-26T13:37:07.799Z,19.30
2018-03-26T13:38:14.020Z,18.52
2018-03-26T13:39:20.292Z,20.60
2018-03-26T13:40:26.492Z,20.12
2018-03-26T13:41:37.807Z,20.05
2018-03-26T13:42:45.473Z,21.48
2018-03-26T13:43:52.102Z,19.05
2018-03-26T13:44:58.517Z,20.05
2018-03-26T13:46:04.445Z,21.85
2018-03-26T13:47:10.416Z,22.70
2018-03-26T13:48:16.715Z,22.62
2018-03-26T13:49:23.028Z,22.05
2018-03-26T13:50:29.297Z,21.85
2018-03-26T13:51:35.565Z,20.67
2018-03-26T13:52:46.028Z,22.05
2018-03-26T13:53:52.137Z,24.02
2018-03-26T13:55:03.391Z,21.42
2018-03-26T13:56:12.139Z,21.20
2018-03-26T13:57:18.812Z,21.27
2018-03-26T13:58:24.706Z,21.73
2018-03-26T13:59:30.963Z,21.85
2018-03-26T14:00:37.204Z,21.05
2018-03-26T14:01:48.304Z,21.05
2018-03-26T14:02:59.304Z,20.98
2018-03-26T14:04:05.182Z,19.40
2018-03-26T14:05:11.381Z,21.75
2018-03-26T14:06:20.556Z,18.08
2018-03-26T14:07:26.809Z,20.30
2018-03-26T14:08:47.158Z,18.90
2018-03-26T14:10:04.235Z,19.55
2018-03-26T14:11:21.255Z,18.67
2018-03-26T14:12:42.303Z,19.37
2018-03-26T14:13:59.534Z,18.40
2018-03-26T14:15:16.690Z,17.45
2018-03-26T14:16:39.999Z,19.35
2018-03-26T14:17:49.961Z,17.90
2018-03-26T14:18:56.178Z,18.67
2018-03-26T14:20:09.311Z,19.55
2018-03-26T14:21:19.685Z,19.10
2018-03-26T14:22:32.879Z,17.92
2018-03-26T14:23:40.042Z,18.45
2018-03-26T14:24:46.659Z,18.25
2018-03-26T14:25:53.982Z,19.70
2018-03-26T14:27:00.276Z,21.12
2018-03-26T14:28:06.274Z,19.87
2018-03-26T14:29:12.888Z,20.90
2018-03-26T14:30:21.100Z,18.80
2018-03-26T14:31:27.635Z,20.02
2018-03-26T14:32:37.100Z,19.15
2018-03-26T14:33:45.063Z,20.42